createdAt,value
2022-10-16T00:08:08.076Z,28.5
2022-10-16T00:13:31.439Z,28.4
2022-10-16T00:18:52.417Z,28.4
2022-10-16T00:24:29.379Z,28.4
2022-10-16T00:30:07.335Z,28.4
2022-10-16T00:35:28.382Z,28.4
2022-10-16T00:41:04.634Z,28.3
2022-10-16T00:46:43.629Z,28.3
2022-10-16T00:52:05.672Z,28.3
2022-10-16T00:57:12.683Z,28.3
2022-10-16T01:02:35.232Z,28.3
2022-10-16T01:08:12.887Z,28.3
2022-10-16T06:49:12.238Z,25.5
2022-10-16T06:54:58.979Z,25.5
2022-10-16T07:00:20.442Z,22.1
2022-10-16T07:05:42.073Z,49.1
2022-10-16T07:11:08.326Z,46.4
2022-10-16T07:16:31.260Z,42.7
2022-10-16T07:21:54.514Z,42.2
2022-10-16T07:27:18.102Z,51.3
2022-10-16T07:32:28.421Z,46.4
2022-10-16T07:37:50.881Z,43.9
2022-10-16T07:43:32.571Z,53.5
2022-10-16T07:48:41.868Z,48.6
2022-10-16T07:54:03.697Z,44.8
2022-10-16T07:59:28.768Z,54.3
2022-10-16T08:04:35.015Z,51.8
2022-10-16T08:09:56.400Z,49.3
2022-10-16T08:15:36.993Z,50.5
2022-10-16T08:20:43.798Z,50.9
2022-10-16T08:25:59.690Z,51.8
2022-10-16T08:31:22.729Z,52.6
2022-10-16T08:36:28.701Z,53.4
2022-10-16T08:41:50.535Z,54
2022-10-16T08:46:57.917Z,54.6
2022-10-16T08:52:03.484Z,55.2
2022-10-16T08:57:10.644Z,55.8
2022-10-16T09:02:05.054Z,56.1
2022-10-16T09:07:15.414Z,56.4
2022-10-16T09:12:09.978Z,56.9
2022-10-16T09:17:17.602Z,57.3
2022-10-16T09:22:10.359Z,57.6
2022-10-16T09:27:35.361Z,57.9
2022-10-16T09:32:41.891Z,58.5
2022-10-16T09:38:04.252Z,59
2022-10-16T09:43:21.227Z,59.1
2022-10-16T09:48:47.321Z,59.3
2022-10-16T09:54:08.939Z,59.7
2022-10-16T09:59:45.652Z,60.1
2022-10-16T10:05:23.776Z,60.1
2022-10-16T10:10:51.058Z,60.5
2022-10-16T10:16:28.367Z,60.8
2022-10-16T10:22:07.836Z,61.1
2022-10-16T10:27:49.092Z,61.2
2022-10-16T10:33:26.593Z,61.3
2022-10-16T10:39:09.812Z,61.1
2022-10-16T10:44:35.398Z,61.3
2022-10-16T10:50:11.862Z,61.1
2022-10-16T10:55:50.332Z,61.3
2022-10-16T11:05:59.101Z,61.6
2022-10-16T11:11:21.834Z,61.7
2022-10-16T11:16:58.592Z,61.8
2022-10-16T11:22:38.100Z,61.8
2022-10-16T11:28:00.855Z,62.1
2022-10-16T11:33:39.215Z,62.2
2022-10-16T11:39:17.160Z,61.8
2022-10-16T11:44:55.006Z,61.4
2022-10-16T11:51:11.506Z,61.3
2022-10-16T11:56:52.569Z,61.1
2022-10-16T12:02:31.448Z,60.9
2022-10-16T12:08:08.892Z,60.8
2022-10-16T12:13:55.048Z,60.5
2022-10-16T12:20:30.298Z,60.3
2022-10-16T12:26:08.708Z,60.1
2022-10-16T12:31:54.456Z,59.9
2022-10-16T12:37:56.304Z,54.9
2022-10-16T12:43:33.792Z,49.7
2022-10-16T12:49:24.775Z,46.3
2022-10-16T12:55:06.009Z,62.9
2022-10-16T13:00:47.321Z,57.6
2022-10-16T13:06:08.774Z,53.2
2022-10-16T13:11:46.270Z,48
2022-10-16T13:17:24.029Z,44.2
2022-10-16T13:23:00.913Z,41.6
2022-10-16T13:28:39.662Z,39.8
2022-10-16T13:34:16.994Z,38.3
2022-10-16T13:39:54.475Z,37.1
2022-10-16T13:45:36.732Z,36.2
2022-10-16T13:51:14.263Z,35.4
2022-10-16T13:57:02.923Z,34.7
2022-10-16T14:02:55.347Z,34.1
2022-10-16T14:08:33.231Z,33.5
2022-10-16T14:14:13.216Z,33
2022-10-16T14:19:56.897Z,32.6
2022-10-16T14:25:23.052Z,32.2
2022-10-16T14:30:49.882Z,31.9
2022-10-16T14:36:12.678Z,31.6
2022-10-16T14:41:37.663Z,31.3
2022-10-16T14:47:01.221Z,31.1
2022-10-16T14:52:08.426Z,30.9
2022-10-16T14:57:00.176Z,30.7
2022-10-16T15:02:06.960Z,30.6
2022-10-16T15:07:29.624Z,30.4
2022-10-16T15:12:56.953Z,30.3
